sensor_id;sensor_type;location;lat;lon;timestamp;P1;durP1;ratioP1;P2;durP2;ratioP2
12886;SDS011;6511;49.746;6.094;2023-02-28T00:00:34;2.57;;;1.50;;
12886;SDS011;6511;49.746;6.094;2023-02-28T00:03:02;2.45;;;1.60;;
12886;SDS011;6511;49.746;6.094;2023-02-28T00:05:28;3.40;;;1.90;;
12886;SDS011;6511;49.746;6.094;2023-02-28T00:07:54;2.90;;;1.90;;
12886;SDS011;6511;49.746;6.094;2023-02-28T00:10:21;2.95;;;1.98;;
12886;SDS011;6511;49.746;6.094;2023-02-28T00:12:53;3.90;;;2.13;;
12886;SDS011;6511;49.746;6.094;2023-02-28T00:15:22;2.30;;;1.90;;
12886;SDS011;6511;49.746;6.094;2023-02-28T00:17:48;3.10;;;2.00;;
12886;SDS011;6511;49.746;6.094;2023-02-28T00:20:14;4.75;;;2.72;;
12886;SDS011;6511;49.746;6.094;2023-02-28T00:22:41;4.37;;;2.67;;
12886;SDS011;6511;49.746;6.094;2023-02-28T00:25:10;3.70;;;2.10;;
12886;SDS011;6511;49.746;6.094;2023-02-28T00:27:37;4.38;;;2.42;;
12886;SDS011;6511;49.746;6.094;2023-02-28T00:30:04;4.20;;;2.58;;
12886;SDS011;6511;49.746;6.094;2023-02-28T00:32:31;4.22;;;2.70;;
12886;SDS011;6511;49.746;6.094;2023-02-28T00:34:56;3.57;;;2.50;;
12886;SDS011;6511;49.746;6.094;2023-02-28T00:37:22;2.67;;;2.00;;
12886;SDS011;6511;49.746;6.094;2023-02-28T00:39:48;2.93;;;2.03;;
12886;SDS011;6511;49.746;6.094;2023-02-28T00:42:14;3.45;;;2.15;;
12886;SDS011;6511;49.746;6.094;2023-02-28T00:44:39;3.20;;;2.00;;
12886;SDS011;6511;49.746;6.094;2023-02-28T00:47:05;3.30;;;2.08;;
12886;SDS011;6511;49.746;6.094;2023-02-28T00:49:30;3.10;;;2.00;;
12886;SDS011;6511;49.746;6.094;2023-02-28T00:51:56;3.40;;;2.00;;
12886;SDS011;6511;49.746;6.094;2023-02-28T00:54:22;2.60;;;1.90;;
12886;SDS011;6511;49.746;6.094;2023-02-28T00:56:48;3.00;;;1.93;;
12886;SDS011;6511;49.746;6.094;2023-02-28T00:59:14;3.20;;;2.00;;
12886;SDS011;6511;49.746;6.094;2023-02-28T01:01:41;3.15;;;2.00;;
12886;SDS011;6511;49.746;6.094;2023-02-28T01:04:08;2.97;;;1.80;;
12886;SDS011;6511;49.746;6.094;2023-02-28T01:06:34;3.33;;;2.00;;
12886;SDS011;6511;49.746;6.094;2023-02-28T01:09:01;2.83;;;1.90;;
12886;SDS011;6511;49.746;6.094;2023-02-28T01:11:28;3.17;;;1.95;;
12886;SDS011;6511;49.746;6.094;2023-02-28T01:13:54;3.28;;;2.05;;
12886;SDS011;6511;49.746;6.094;2023-02-28T01:16:19;4.23;;;2.10;;
12886;SDS011;6511;49.746;6.094;2023-02-28T01:18:45;3.22;;;2.22;;
12886;SDS011;6511;49.746;6.094;2023-02-28T01:21:12;2.90;;;2.03;;
12886;SDS011;6511;49.746;6.094;2023-02-28T01:23:40;2.65;;;2.10;;
12886;SDS011;6511;49.746;6.094;2023-02-28T01:26:16;2.55;;;1.90;;
12886;SDS011;6511;49.746;6.094;2023-02-28T01:28:47;3.03;;;1.95;;
12886;SDS011;6511;49.746;6.094;2023-02-28T01:31:13;2.60;;;1.90;;
12886;SDS011;6511;49.746;6.094;2023-02-28T01:33:40;3.25;;;2.00;;
12886;SDS011;6511;49.746;6.094;2023-02-28T01:36:09;3.47;;;2.15;;
12886;SDS011;6511;49.746;6.094;2023-02-28T01:38:37;2.83;;;1.90;;
12886;SDS011;6511;49.746;6.094;2023-02-28T01:41:03;3.45;;;2.00;;
12886;SDS011;6511;49.746;6.094;2023-02-28T01:43:30;3.50;;;2.00;;
12886;SDS011;6511;49.746;6.094;2023-02-28T01:46:17;2.97;;;1.95;;
12886;SDS011;6511;49.746;6.094;2023-02-28T01:48:44;3.13;;;2.00;;
12886;SDS011;6511;49.746;6.094;2023-02-28T01:51:31;3.43;;;1.90;;
12886;SDS011;6511;49.746;6.094;2023-02-28T01:54:02;2.33;;;1.90;;
12886;SDS011;6511;49.746;6.094;2023-02-28T01:56:38;2.55;;;1.92;;
12886;SDS011;6511;49.746;6.094;2023-02-28T01:59:07;3.80;;;1.95;;
12886;SDS011;6511;49.746;6.094;2023-02-28T02:01:33;3.53;;;2.47;;
12886;SDS011;6511;49.746;6.094;2023-02-28T02:04:00;4.10;;;2.22;;
12886;SDS011;6511;49.746;6.094;2023-02-28T02:06:28;2.95;;;2.20;;
12886;SDS011;6511;49.746;6.094;2023-02-28T02:09:02;3.90;;;2.15;;
12886;SDS011;6511;49.746;6.094;2023-02-28T02:11:29;3.45;;;2.03;;
12886;SDS011;6511;49.746;6.094;2023-02-28T02:19:51;3.08;;;2.05;;
12886;SDS011;6511;49.746;6.094;2023-02-28T02:25:45;3.03;;;2.00;;
12886;SDS011;6511;49.746;6.094;2023-02-28T02:28:26;2.83;;;2.13;;
12886;SDS011;6511;49.746;6.094;2023-02-28T02:31:06;3.33;;;2.10;;
12886;SDS011;6511;49.746;6.094;2023-02-28T02:36:27;3.05;;;2.00;;
12886;SDS011;6511;49.746;6.094;2023-02-28T02:39:11;3.43;;;2.37;;
12886;SDS011;6511;49.746;6.094;2023-02-28T02:41:46;2.67;;;1.98;;
12886;SDS011;6511;49.746;6.094;2023-02-28T02:44:22;3.97;;;2.05;;
12886;SDS011;6511;49.746;6.094;2023-02-28T02:46:54;3.35;;;2.20;;
12886;SDS011;6511;49.746;6.094;2023-02-28T02:49:26;3.75;;;2.20;;
12886;SDS011;6511;49.746;6.094;2023-02-28T02:51:55;4.10;;;2.00;;
12886;SDS011;6511;49.746;6.094;2023-02-28T02:54:27;2.40;;;2.08;;
12886;SDS011;6511;49.746;6.094;2023-02-28T02:56:56;2.70;;;2.00;;
12886;SDS011;6511;49.746;6.094;2023-02-28T02:59:27;4.30;;;2.20;;
12886;SDS011;6511;49.746;6.094;2023-02-28T03:01:57;2.80;;;2.30;;
12886;SDS011;6511;49.746;6.094;2023-02-28T03:04:28;3.78;;;2.30;;
12886;SDS011;6511;49.746;6.094;2023-02-28T03:06:58;4.60;;;2.30;;
12886;SDS011;6511;49.746;6.094;2023-02-28T03:09:24;3.25;;;2.50;;
12886;SDS011;6511;49.746;6.094;2023-02-28T03:11:51;3.58;;;2.45;;
12886;SDS011;6511;49.746;6.094;2023-02-28T03:26:41;2.80;;;2.37;;
12886;SDS011;6511;49.746;6.094;2023-02-28T03:31:41;3.60;;;2.50;;
12886;SDS011;6511;49.746;6.094;2023-02-28T03:37:12;3.97;;;2.33;;
12886;SDS011;6511;49.746;6.094;2023-02-28T03:39:44;3.28;;;2.60;;
12886;SDS011;6511;49.746;6.094;2023-02-28T03:42:19;3.13;;;2.53;;
12886;SDS011;6511;49.746;6.094;2023-02-28T03:44:52;3.55;;;2.63;;
12886;SDS011;6511;49.746;6.094;2023-02-28T03:47:25;3.85;;;2.65;;
12886;SDS011;6511;49.746;6.094;2023-02-28T03:49:57;3.70;;;2.80;;
12886;SDS011;6511;49.746;6.094;2023-02-28T03:52:47;3.20;;;2.40;;
12886;SDS011;6511;49.746;6.094;2023-02-28T03:55:30;4.75;;;2.92;;
12886;SDS011;6511;49.746;6.094;2023-02-28T04:00:53;3.92;;;2.80;;
12886;SDS011;6511;49.746;6.094;2023-02-28T04:03:32;3.67;;;3.00;;
12886;SDS011;6511;49.746;6.094;2023-02-28T04:05:58;3.40;;;2.80;;
12886;SDS011;6511;49.746;6.094;2023-02-28T04:08:24;4.15;;;3.15;;
12886;SDS011;6511;49.746;6.094;2023-02-28T04:10:54;4.80;;;2.90;;
12886;SDS011;6511;49.746;6.094;2023-02-28T04:13:25;5.22;;;3.30;;
12886;SDS011;6511;49.746;6.094;2023-02-28T04:15:50;5.85;;;3.40;;
12886;SDS011;6511;49.746;6.094;2023-02-28T04:18:16;3.83;;;3.10;;
12886;SDS011;6511;49.746;6.094;2023-02-28T04:20:41;4.25;;;3.25;;
12886;SDS011;6511;49.746;6.094;2023-02-28T04:23:07;4.80;;;3.27;;
12886;SDS011;6511;49.746;6.094;2023-02-28T04:25:32;4.87;;;3.30;;
12886;SDS011;6511;49.746;6.094;2023-02-28T04:27:58;3.88;;;3.40;;
12886;SDS011;6511;49.746;6.094;2023-02-28T04:30:24;3.93;;;3.20;;
12886;SDS011;6511;49.746;6.094;2023-02-28T04:32:49;5.53;;;3.60;;
12886;SDS011;6511;49.746;6.094;2023-02-28T04:35:15;4.90;;;3.30;;
12886;SDS011;6511;49.746;6.094;2023-02-28T04:37:40;6.97;;;3.80;;
12886;SDS011;6511;49.746;6.094;2023-02-28T04:40:06;5.45;;;3.75;;
12886;SDS011;6511;49.746;6.094;2023-02-28T04:42:32;5.25;;;3.75;;
12886;SDS011;6511;49.746;6.094;2023-02-28T04:45:01;4.88;;;3.75;;
12886;SDS011;6511;49.746;6.094;2023-02-28T04:47:28;5.35;;;3.83;;
12886;SDS011;6511;49.746;6.094;2023-02-28T04:49:54;4.70;;;3.50;;
12886;SDS011;6511;49.746;6.094;2023-02-28T04:52:19;5.83;;;4.20;;
12886;SDS011;6511;49.746;6.094;2023-02-28T04:54:45;6.63;;;4.20;;
12886;SDS011;6511;49.746;6.094;2023-02-28T04:57:10;5.73;;;4.37;;
12886;SDS011;6511;49.746;6.094;2023-02-28T04:59:36;5.82;;;4.45;;
12886;SDS011;6511;49.746;6.094;2023-02-28T05:02:03;5.80;;;4.30;;
12886;SDS011;6511;49.746;6.094;2023-02-28T05:04:32;6.25;;;4.25;;
12886;SDS011;6511;49.746;6.094;2023-02-28T05:06:59;5.88;;;4.30;;
12886;SDS011;6511;49.746;6.094;2023-02-28T05:09:25;6.63;;;4.53;;
12886;SDS011;6511;49.746;6.094;2023-02-28T05:11:51;7.20;;;4.50;;
12886;SDS011;6511;49.746;6.094;2023-02-28T05:14:16;6.23;;;4.40;;
12886;SDS011;6511;49.746;6.094;2023-02-28T05:16:42;6.25;;;4.53;;
12886;SDS011;6511;49.746;6.094;2023-02-28T05:19:08;5.80;;;4.50;;
12886;SDS011;6511;49.746;6.094;2023-02-28T05:21:40;6.75;;;4.97;;
12886;SDS011;6511;49.746;6.094;2023-02-28T05:24:13;6.20;;;4.90;;
12886;SDS011;6511;49.746;6.094;2023-02-28T05:26:40;7.00;;;4.97;;
12886;SDS011;6511;49.746;6.094;2023-02-28T05:29:06;7.03;;;5.22;;
12886;SDS011;6511;49.746;6.094;2023-02-28T05:31:32;7.38;;;5.30;;
12886;SDS011;6511;49.746;6.094;2023-02-28T05:33:58;7.43;;;5.25;;
12886;SDS011;6511;49.746;6.094;2023-02-28T05:36:24;6.60;;;5.22;;
12886;SDS011;6511;49.746;6.094;2023-02-28T05:38:50;9.27;;;5.63;;
12886;SDS011;6511;49.746;6.094;2023-02-28T05:41:16;7.78;;;5.40;;
12886;SDS011;6511;49.746;6.094;2023-02-28T05:43:44;7.28;;;5.40;;
12886;SDS011;6511;49.746;6.094;2023-02-28T05:46:11;7.78;;;5.90;;
12886;SDS011;6511;49.746;6.094;2023-02-28T05:48:38;7.65;;;5.78;;
12886;SDS011;6511;49.746;6.094;2023-02-28T05:51:05;8.02;;;5.72;;
12886;SDS011;6511;49.746;6.094;2023-02-28T05:53:31;7.72;;;6.20;;
12886;SDS011;6511;49.746;6.094;2023-02-28T05:55:57;9.82;;;6.00;;
12886;SDS011;6511;49.746;6.094;2023-02-28T05:58:23;9.30;;;6.40;;
12886;SDS011;6511;49.746;6.094;2023-02-28T06:00:55;9.98;;;6.50;;
12886;SDS011;6511;49.746;6.094;2023-02-28T06:03:24;9.23;;;6.30;;
12886;SDS011;6511;49.746;6.094;2023-02-28T06:05:50;9.13;;;6.43;;
12886;SDS011;6511;49.746;6.094;2023-02-28T06:08:18;7.63;;;6.07;;
12886;SDS011;6511;49.746;6.094;2023-02-28T06:10:44;7.93;;;6.03;;
12886;SDS011;6511;49.746;6.094;2023-02-28T06:13:10;9.25;;;6.25;;
12886;SDS011;6511;49.746;6.094;2023-02-28T06:15:36;9.05;;;6.15;;
12886;SDS011;6511;49.746;6.094;2023-02-28T06:18:02;8.90;;;6.07;;
12886;SDS011;6511;49.746;6.094;2023-02-28T06:20:28;8.00;;;6.25;;
12886;SDS011;6511;49.746;6.094;2023-02-28T06:22:55;8.05;;;6.22;;
12886;SDS011;6511;49.746;6.094;2023-02-28T06:25:23;8.52;;;6.53;;
12886;SDS011;6511;49.746;6.094;2023-02-28T06:27:49;8.32;;;6.18;;
12886;SDS011;6511;49.746;6.094;2023-02-28T06:30:15;8.83;;;6.23;;
12886;SDS011;6511;49.746;6.094;2023-02-28T06:32:40;7.65;;;6.15;;
12886;SDS011;6511;49.746;6.094;2023-02-28T06:35:06;8.23;;;6.53;;
12886;SDS011;6511;49.746;6.094;2023-02-28T06:37:32;8.25;;;6.57;;
12886;SDS011;6511;49.746;6.094;2023-02-28T06:39:58;8.13;;;6.20;;
12886;SDS011;6511;49.746;6.094;2023-02-28T06:42:24;8.37;;;6.33;;
12886;SDS011;6511;49.746;6.094;2023-02-28T06:44:53;8.38;;;6.50;;
12886;SDS011;6511;49.746;6.094;2023-02-28T06:47:22;8.13;;;6.43;;
12886;SDS011;6511;49.746;6.094;2023-02-28T06:49:47;8.82;;;6.55;;
12886;SDS011;6511;49.746;6.094;2023-02-28T06:52:13;7.93;;;6.23;;
12886;SDS011;6511;49.746;6.094;2023-02-28T06:54:39;7.68;;;6.10;;
12886;SDS011;6511;49.746;6.094;2023-02-28T06:57:05;9.00;;;6.55;;
12886;SDS011;6511;49.746;6.094;2023-02-28T06:59:30;9.60;;;6.17;;
12886;SDS011;6511;49.746;6.094;2023-02-28T07:01:56;6.95;;;6.20;;
12886;SDS011;6511;49.746;6.094;2023-02-28T07:04:22;8.20;;;6.13;;
12886;SDS011;6511;49.746;6.094;2023-02-28T07:06:47;8.02;;;6.30;;
12886;SDS011;6511;49.746;6.094;2023-02-28T07:09:13;8.47;;;6.10;;
12886;SDS011;6511;49.746;6.094;2023-02-28T07:11:39;9.50;;;6.20;;
12886;SDS011;6511;49.746;6.094;2023-02-28T07:14:06;8.83;;;5.67;;
12886;SDS011;6511;49.746;6.094;2023-02-28T07:16:32;7.40;;;5.90;;
12886;SDS011;6511;49.746;6.094;2023-02-28T07:18:58;7.63;;;5.82;;
12886;SDS011;6511;49.746;6.094;2023-02-28T07:21:24;8.30;;;6.30;;
12886;SDS011;6511;49.746;6.094;2023-02-28T07:23:49;7.22;;;5.97;;
12886;SDS011;6511;49.746;6.094;2023-02-28T07:26:17;8.10;;;6.20;;
12886;SDS011;6511;49.746;6.094;2023-02-28T07:28:44;7.13;;;5.55;;
12886;SDS011;6511;49.746;6.094;2023-02-28T07:31:11;7.03;;;5.90;;
12886;SDS011;6511;49.746;6.094;2023-02-28T07:33:39;7.05;;;5.55;;
12886;SDS011;6511;49.746;6.094;2023-02-28T07:36:07;7.43;;;5.70;;
12886;SDS011;6511;49.746;6.094;2023-02-28T07:38:40;7.80;;;5.70;;
12886;SDS011;6511;49.746;6.094;2023-02-28T07:41:13;6.87;;;5.50;;
12886;SDS011;6511;49.746;6.094;2023-02-28T07:43:40;7.77;;;5.23;;
12886;SDS011;6511;49.746;6.094;2023-02-28T07:46:10;7.85;;;5.90;;
12886;SDS011;6511;49.746;6.094;2023-02-28T07:48:37;6.85;;;5.53;;
12886;SDS011;6511;49.746;6.094;2023-02-28T07:51:03;6.03;;;5.43;;
12886;SDS011;6511;49.746;6.094;2023-02-28T07:53:29;6.85;;;5.28;;
12886;SDS011;6511;49.746;6.094;2023-02-28T07:55:55;5.90;;;4.90;;
12886;SDS011;6511;49.746;6.094;2023-02-28T07:58:22;7.80;;;5.22;;
12886;SDS011;6511;49.746;6.094;2023-02-28T08:00:48;7.38;;;5.15;;
12886;SDS011;6511;49.746;6.094;2023-02-28T08:03:14;5.57;;;4.57;;
12886;SDS011;6511;49.746;6.094;2023-02-28T08:05:40;5.78;;;4.70;;
12886;SDS011;6511;49.746;6.094;2023-02-28T08:08:06;5.80;;;4.53;;
12886;SDS011;6511;49.746;6.094;2023-02-28T08:10:32;6.00;;;4.55;;
12886;SDS011;6511;49.746;6.094;2023-02-28T08:12:58;5.28;;;4.50;;
12886;SDS011;6511;49.746;6.094;2023-02-28T08:15:25;5.70;;;4.40;;
12886;SDS011;6511;49.746;6.094;2023-02-28T08:17:50;5.82;;;4.22;;
12886;SDS011;6511;49.746;6.094;2023-02-28T08:20:16;6.45;;;4.45;;
12886;SDS011;6511;49.746;6.094;2023-02-28T08:22:42;5.43;;;4.30;;
12886;SDS011;6511;49.746;6.094;2023-02-28T08:25:08;5.40;;;4.43;;
12886;SDS011;6511;49.746;6.094;2023-02-28T08:27:34;5.63;;;4.30;;
12886;SDS011;6511;49.746;6.094;2023-02-28T08:30:00;5.85;;;4.28;;
12886;SDS011;6511;49.746;6.094;2023-02-28T08:32:25;5.20;;;4.60;;
12886;SDS011;6511;49.746;6.094;2023-02-28T08:34:51;5.30;;;4.50;;
12886;SDS011;6511;49.746;6.094;2023-02-28T08:37:17;5.43;;;4.40;;
12886;SDS011;6511;49.746;6.094;2023-02-28T08:39:42;6.67;;;4.60;;
12886;SDS011;6511;49.746;6.094;2023-02-28T08:42:08;5.03;;;4.03;;
12886;SDS011;6511;49.746;6.094;2023-02-28T08:44:33;5.13;;;4.00;;
12886;SDS011;6511;49.746;6.094;2023-02-28T08:46:59;6.22;;;4.25;;
12886;SDS011;6511;49.746;6.094;2023-02-28T08:49:25;5.23;;;4.20;;
12886;SDS011;6511;49.746;6.094;2023-02-28T08:51:50;7.30;;;4.30;;
12886;SDS011;6511;49.746;6.094;2023-02-28T08:54:16;5.80;;;4.23;;
12886;SDS011;6511;49.746;6.094;2023-02-28T08:56:44;5.53;;;4.07;;
12886;SDS011;6511;49.746;6.094;2023-02-28T08:59:11;5.05;;;4.10;;
12886;SDS011;6511;49.746;6.094;2023-02-28T09:01:37;5.63;;;4.10;;
12886;SDS011;6511;49.746;6.094;2023-02-28T09:04:03;5.70;;;3.80;;
12886;SDS011;6511;49.746;6.094;2023-02-28T09:06:28;5.20;;;3.63;;
12886;SDS011;6511;49.746;6.094;2023-02-28T09:08:57;4.87;;;3.70;;
12886;SDS011;6511;49.746;6.094;2023-02-28T09:11:24;5.53;;;3.90;;
12886;SDS011;6511;49.746;6.094;2023-02-28T09:13:50;6.25;;;3.70;;
12886;SDS011;6511;49.746;6.094;2023-02-28T09:16:16;4.30;;;3.50;;
12886;SDS011;6511;49.746;6.094;2023-02-28T09:18:43;6.15;;;3.88;;
12886;SDS011;6511;49.746;6.094;2023-02-28T09:21:10;5.05;;;3.50;;
12886;SDS011;6511;49.746;6.094;2023-02-28T09:23:39;4.38;;;3.28;;
12886;SDS011;6511;49.746;6.094;2023-02-28T09:26:16;4.20;;;3.30;;
12886;SDS011;6511;49.746;6.094;2023-02-28T09:28:44;4.10;;;3.08;;
12886;SDS011;6511;49.746;6.094;2023-02-28T09:31:14;3.95;;;3.03;;
12886;SDS011;6511;49.746;6.094;2023-02-28T09:33:41;3.90;;;3.00;;
12886;SDS011;6511;49.746;6.094;2023-02-28T09:36:07;4.07;;;3.10;;
12886;SDS011;6511;49.746;6.094;2023-02-28T09:38:33;4.35;;;3.10;;
12886;SDS011;6511;49.746;6.094;2023-02-28T09:41:04;3.95;;;3.20;;
12886;SDS011;6511;49.746;6.094;2023-02-28T09:43:39;5.20;;;3.13;;
12886;SDS011;6511;49.746;6.094;2023-02-28T09:49:00;4.13;;;3.10;;
12886;SDS011;6511;49.746;6.094;2023-02-28T09:54:20;4.03;;;2.85;;
12886;SDS011;6511;49.746;6.094;2023-02-28T10:04:47;3.90;;;2.40;;
12886;SDS011;6511;49.746;6.094;2023-02-28T10:10:27;3.67;;;2.40;;
12886;SDS011;6511;49.746;6.094;2023-02-28T10:15:46;2.65;;;2.13;;
12886;SDS011;6511;49.746;6.094;2023-02-28T10:18:16;3.00;;;2.50;;
12886;SDS011;6511;49.746;6.094;2023-02-28T10:20:47;2.75;;;2.00;;
12886;SDS011;6511;49.746;6.094;2023-02-28T10:23:25;3.28;;;2.20;;
12886;SDS011;6511;49.746;6.094;2023-02-28T10:26:12;2.90;;;2.30;;
12886;SDS011;6511;49.746;6.094;2023-02-28T10:28:43;2.50;;;2.30;;
12886;SDS011;6511;49.746;6.094;2023-02-28T10:31:17;2.67;;;2.20;;
12886;SDS011;6511;49.746;6.094;2023-02-28T10:33:44;3.90;;;2.40;;
12886;SDS011;6511;49.746;6.094;2023-02-28T10:36:20;4.18;;;2.70;;
12886;SDS011;6511;49.746;6.094;2023-02-28T10:38:46;3.05;;;2.38;;
12886;SDS011;6511;49.746;6.094;2023-02-28T10:41:14;3.65;;;2.63;;
12886;SDS011;6511;49.746;6.094;2023-02-28T10:43:41;3.83;;;2.80;;
12886;SDS011;6511;49.746;6.094;2023-02-28T10:48:45;3.53;;;2.83;;
12886;SDS011;6511;49.746;6.094;2023-02-28T10:51:21;3.88;;;2.95;;
12886;SDS011;6511;49.746;6.094;2023-02-28T10:53:49;4.22;;;3.10;;
12886;SDS011;6511;49.746;6.094;2023-02-28T10:56:20;3.65;;;2.80;;
12886;SDS011;6511;49.746;6.094;2023-02-28T11:01:33;3.65;;;2.75;;
12886;SDS011;6511;49.746;6.094;2023-02-28T11:04:03;4.35;;;2.97;;
12886;SDS011;6511;49.746;6.094;2023-02-28T11:06:41;4.35;;;2.95;;
12886;SDS011;6511;49.746;6.094;2023-02-28T11:09:15;3.88;;;2.92;;
12886;SDS011;6511;49.746;6.094;2023-02-28T11:11:49;3.97;;;3.10;;
12886;SDS011;6511;49.746;6.094;2023-02-28T11:14:26;4.25;;;3.22;;
12886;SDS011;6511;49.746;6.094;2023-02-28T11:16:54;4.38;;;2.95;;
12886;SDS011;6511;49.746;6.094;2023-02-28T11:19:25;3.37;;;2.90;;
12886;SDS011;6511;49.746;6.094;2023-02-28T11:22:00;3.33;;;2.88;;
12886;SDS011;6511;49.746;6.094;2023-02-28T11:24:28;3.40;;;3.10;;
12886;SDS011;6511;49.746;6.094;2023-02-28T11:27:00;3.30;;;3.00;;
12886;SDS011;6511;49.746;6.094;2023-02-28T11:29:27;3.37;;;3.00;;
12886;SDS011;6511;49.746;6.094;2023-02-28T11:32:02;4.30;;;3.20;;
12886;SDS011;6511;49.746;6.094;2023-02-28T11:34:32;4.40;;;3.38;;
12886;SDS011;6511;49.746;6.094;2023-02-28T11:36:58;3.40;;;3.10;;
12886;SDS011;6511;49.746;6.094;2023-02-28T11:39:25;3.92;;;3.20;;
12886;SDS011;6511;49.746;6.094;2023-02-28T11:55:40;3.65;;;3.30;;
12886;SDS011;6511;49.746;6.094;2023-02-28T12:00:40;4.70;;;3.50;;
12886;SDS011;6511;49.746;6.094;2023-02-28T12:14:46;5.00;;;3.63;;
12886;SDS011;6511;49.746;6.094;2023-02-28T12:17:50;4.97;;;3.50;;
12886;SDS011;6511;49.746;6.094;2023-02-28T12:20:22;4.45;;;3.65;;
12886;SDS011;6511;49.746;6.094;2023-02-28T12:28:35;4.47;;;3.50;;
12886;SDS011;6511;49.746;6.094;2023-02-28T12:31:17;4.93;;;3.53;;
12886;SDS011;6511;49.746;6.094;2023-02-28T12:33:49;4.10;;;3.70;;
12886;SDS011;6511;49.746;6.094;2023-02-28T12:36:18;5.43;;;3.85;;
12886;SDS011;6511;49.746;6.094;2023-02-28T12:38:47;4.85;;;3.55;;
12886;SDS011;6511;49.746;6.094;2023-02-28T12:41:22;4.45;;;3.72;;
12886;SDS011;6511;49.746;6.094;2023-02-28T12:44:04;4.25;;;3.50;;
12886;SDS011;6511;49.746;6.094;2023-02-28T12:46:54;5.43;;;3.80;;
12886;SDS011;6511;49.746;6.094;2023-02-28T12:49:25;5.25;;;3.80;;
12886;SDS011;6511;49.746;6.094;2023-02-28T12:51:57;4.47;;;3.95;;
12886;SDS011;6511;49.746;6.094;2023-02-28T12:54:30;4.43;;;3.83;;
12886;SDS011;6511;49.746;6.094;2023-02-28T13:02:23;5.35;;;4.20;;
12886;SDS011;6511;49.746;6.094;2023-02-28T13:13:28;5.82;;;4.07;;
12886;SDS011;6511;49.746;6.094;2023-02-28T13:18:28;4.30;;;3.53;;
12886;SDS011;6511;49.746;6.094;2023-02-28T13:21:03;5.55;;;4.00;;
12886;SDS011;6511;49.746;6.094;2023-02-28T13:23:36;4.75;;;3.55;;
12886;SDS011;6511;49.746;6.094;2023-02-28T13:26:05;4.33;;;3.90;;
12886;SDS011;6511;49.746;6.094;2023-02-28T13:31:15;8.95;;;5.47;;
12886;SDS011;6511;49.746;6.094;2023-02-28T13:38:41;4.53;;;3.95;;
12886;SDS011;6511;49.746;6.094;2023-02-28T13:46:30;6.05;;;4.38;;
12886;SDS011;6511;49.746;6.094;2023-02-28T13:49:46;5.53;;;4.13;;
12886;SDS011;6511;49.746;6.094;2023-02-28T14:05:29;5.00;;;4.07;;
12886;SDS011;6511;49.746;6.094;2023-02-28T14:07:59;3.90;;;3.47;;
12886;SDS011;6511;49.746;6.094;2023-02-28T14:10:50;4.50;;;3.80;;
12886;SDS011;6511;49.746;6.094;2023-02-28T14:16:10;3.90;;;3.50;;
12886;SDS011;6511;49.746;6.094;2023-02-28T14:18:37;4.65;;;3.65;;
12886;SDS011;6511;49.746;6.094;2023-02-28T14:27:11;4.75;;;3.65;;
12886;SDS011;6511;49.746;6.094;2023-02-28T14:34:50;4.97;;;3.83;;
12886;SDS011;6511;49.746;6.094;2023-02-28T14:37:24;4.57;;;3.63;;
12886;SDS011;6511;49.746;6.094;2023-02-28T14:39:54;4.23;;;3.70;;
12886;SDS011;6511;49.746;6.094;2023-02-28T14:42:28;4.65;;;3.72;;
12886;SDS011;6511;49.746;6.094;2023-02-28T14:44:59;4.50;;;3.60;;
12886;SDS011;6511;49.746;6.094;2023-02-28T14:47:27;4.28;;;3.88;;
12886;SDS011;6511;49.746;6.094;2023-02-28T14:49:56;5.72;;;3.80;;
12886;SDS011;6511;49.746;6.094;2023-02-28T14:52:24;3.53;;;3.22;;
12886;SDS011;6511;49.746;6.094;2023-02-28T14:55:04;3.75;;;3.35;;
12886;SDS011;6511;49.746;6.094;2023-02-28T14:57:40;4.38;;;3.42;;
12886;SDS011;6511;49.746;6.094;2023-02-28T15:00:16;4.43;;;3.70;;
12886;SDS011;6511;49.746;6.094;2023-02-28T15:02:48;5.20;;;3.60;;
12886;SDS011;6511;49.746;6.094;2023-02-28T15:07:43;4.70;;;3.80;;
12886;SDS011;6511;49.746;6.094;2023-02-28T15:10:10;4.28;;;3.40;;
12886;SDS011;6511;49.746;6.094;2023-02-28T15:12:56;4.32;;;3.70;;
12886;SDS011;6511;49.746;6.094;2023-02-28T15:15:22;5.07;;;3.85;;
12886;SDS011;6511;49.746;6.094;2023-02-28T15:18:07;5.20;;;3.70;;
12886;SDS011;6511;49.746;6.094;2023-02-28T15:21:02;4.78;;;3.65;;
12886;SDS011;6511;49.746;6.094;2023-02-28T15:23:31;5.17;;;3.97;;
12886;SDS011;6511;49.746;6.094;2023-02-28T15:25:57;4.85;;;4.00;;
12886;SDS011;6511;49.746;6.094;2023-02-28T15:28:24;4.78;;;3.70;;
12886;SDS011;6511;49.746;6.094;2023-02-28T15:31:02;5.18;;;4.03;;
12886;SDS011;6511;49.746;6.094;2023-02-28T15:33:51;5.88;;;3.95;;
12886;SDS011;6511;49.746;6.094;2023-02-28T15:36:18;4.97;;;3.93;;
12886;SDS011;6511;49.746;6.094;2023-02-28T15:38:49;4.40;;;3.80;;
12886;SDS011;6511;49.746;6.094;2023-02-28T15:41:27;4.47;;;3.60;;
12886;SDS011;6511;49.746;6.094;2023-02-28T15:47:04;5.80;;;3.95;;
12886;SDS011;6511;49.746;6.094;2023-02-28T15:49:34;5.22;;;3.80;;
12886;SDS011;6511;49.746;6.094;2023-02-28T15:52:15;4.67;;;4.03;;
12886;SDS011;6511;49.746;6.094;2023-02-28T15:54:44;4.75;;;4.15;;
12886;SDS011;6511;49.746;6.094;2023-02-28T15:57:13;4.78;;;3.90;;
12886;SDS011;6511;49.746;6.094;2023-02-28T15:59:49;4.88;;;4.30;;
12886;SDS011;6511;49.746;6.094;2023-02-28T16:02:20;4.97;;;3.93;;
12886;SDS011;6511;49.746;6.094;2023-02-28T16:07:31;4.68;;;4.15;;
12886;SDS011;6511;49.746;6.094;2023-02-28T16:09:58;5.68;;;4.22;;
12886;SDS011;6511;49.746;6.094;2023-02-28T16:12:28;4.70;;;4.00;;
12886;SDS011;6511;49.746;6.094;2023-02-28T16:14:56;5.45;;;3.90;;
12886;SDS011;6511;49.746;6.094;2023-02-28T16:17:27;4.82;;;4.20;;
12886;SDS011;6511;49.746;6.094;2023-02-28T16:19:55;4.90;;;4.10;;
12886;SDS011;6511;49.746;6.094;2023-02-28T16:22:21;6.43;;;4.05;;
12886;SDS011;6511;49.746;6.094;2023-02-28T16:24:47;5.82;;;4.22;;
12886;SDS011;6511;49.746;6.094;2023-02-28T16:27:30;4.63;;;3.90;;
12886;SDS011;6511;49.746;6.094;2023-02-28T16:29:57;5.50;;;4.30;;
12886;SDS011;6511;49.746;6.094;2023-02-28T16:32:23;4.70;;;4.20;;
12886;SDS011;6511;49.746;6.094;2023-02-28T16:34:49;5.72;;;4.60;;
12886;SDS011;6511;49.746;6.094;2023-02-28T16:37:16;5.60;;;4.20;;
12886;SDS011;6511;49.746;6.094;2023-02-28T16:39:43;5.57;;;4.20;;
12886;SDS011;6511;49.746;6.094;2023-02-28T16:42:31;5.45;;;4.20;;
12886;SDS011;6511;49.746;6.094;2023-02-28T16:44:56;4.78;;;4.10;;
12886;SDS011;6511;49.746;6.094;2023-02-28T16:47:23;5.38;;;4.28;;
12886;SDS011;6511;49.746;6.094;2023-02-28T16:49:49;5.70;;;4.57;;
12886;SDS011;6511;49.746;6.094;2023-02-28T16:52:14;6.13;;;4.07;;
12886;SDS011;6511;49.746;6.094;2023-02-28T16:54:40;6.30;;;4.38;;
12886;SDS011;6511;49.746;6.094;2023-02-28T16:57:08;5.82;;;4.60;;
12886;SDS011;6511;49.746;6.094;2023-02-28T16:59:46;4.88;;;4.22;;
12886;SDS011;6511;49.746;6.094;2023-02-28T17:02:14;5.73;;;4.60;;
12886;SDS011;6511;49.746;6.094;2023-02-28T17:04:41;5.75;;;4.47;;
12886;SDS011;6511;49.746;6.094;2023-02-28T17:07:13;6.35;;;4.53;;
12886;SDS011;6511;49.746;6.094;2023-02-28T17:09:43;5.75;;;4.55;;
12886;SDS011;6511;49.746;6.094;2023-02-28T17:12:09;7.15;;;5.00;;
12886;SDS011;6511;49.746;6.094;2023-02-28T17:14:36;5.32;;;4.60;;
12886;SDS011;6511;49.746;6.094;2023-02-28T17:17:03;6.63;;;5.03;;
12886;SDS011;6511;49.746;6.094;2023-02-28T17:19:30;5.95;;;4.60;;
12886;SDS011;6511;49.746;6.094;2023-02-28T17:21:55;7.30;;;5.27;;
12886;SDS011;6511;49.746;6.094;2023-02-28T17:24:21;6.65;;;5.22;;
12886;SDS011;6511;49.746;6.094;2023-02-28T17:26:49;5.87;;;4.77;;
12886;SDS011;6511;49.746;6.094;2023-02-28T17:29:19;6.55;;;4.70;;
12886;SDS011;6511;49.746;6.094;2023-02-28T17:31:46;5.65;;;4.60;;
12886;SDS011;6511;49.746;6.094;2023-02-28T17:34:12;6.88;;;4.85;;
12886;SDS011;6511;49.746;6.094;2023-02-28T17:36:43;6.28;;;4.68;;
12886;SDS011;6511;49.746;6.094;2023-02-28T17:39:10;6.73;;;4.90;;
12886;SDS011;6511;49.746;6.094;2023-02-28T17:41:39;7.30;;;4.95;;
12886;SDS011;6511;49.746;6.094;2023-02-28T17:44:06;6.07;;;4.77;;
12886;SDS011;6511;49.746;6.094;2023-02-28T17:46:36;5.97;;;4.55;;
12886;SDS011;6511;49.746;6.094;2023-02-28T17:49:02;6.15;;;4.85;;